Time;durP1;ratioP1;P1;durP2;ratioP2;P2;SDS_P1;SDS_P2;PMS_P1;PMS_P2;Temp;Humidity;BMP_temperature;BMP_pressure;BME280_temperature;BME280_humidity;BME280_pressure;Samples;Min_cycle;Max_cycle;Signal;HPM_P1;HPM_P2
2024/02/01 00:01:37;;;;;;;21.87;11.13;;;8.10;91.00;;;;;;797935;180;27080;-78
2024/02/01 00:04:03;;;;;;;26.03;13.43;;;8.10;91.10;;;;;;814582;176;26422;-77
2024/02/01 00:06:30;;;;;;;48.33;20.60;;;8.20;91.50;;;;;;826235;173;26411;-77
2024/02/01 00:08:56;;;;;;;41.77;19.57;;;8.20;91.90;;;;;;799568;176;26440;-78
2024/02/01 00:11:23;;;;;;;23.70;13.17;;;8.30;92.30;;;;;;811534;177;26525;-77
2024/02/01 00:13:50;;;;;;;17.60;9.47;;;8.50;93.40;;;;;;808763;173;26403;-77
2024/02/01 00:16:19;;;;;;;22.77;11.40;;;8.70;93.80;;;;;;807122;174;26428;-77
2024/02/01 00:18:47;;;;;;;35.97;18.13;;;8.90;94.30;;;;;;808131;173;26431;-77
2024/02/01 00:21:12;;;;;;;17.30;9.33;;;9.10;94.20;;;;;;813611;174;26404;-77
2024/02/01 00:23:39;;;;;;;38.37;18.40;;;9.20;94.10;;;;;;807216;177;26407;-77
2024/02/01 00:26:06;;;;;;;18.43;10.10;;;9.20;94.30;;;;;;819103;173;26915;-77
2024/02/01 00:28:32;;;;;;;28.23;14.23;;;9.40;94.30;;;;;;801042;176;26496;-77
2024/02/01 00:30:59;;;;;;;44.97;20.40;;;9.40;94.30;;;;;;820033;173;26871;-77
2024/02/01 00:33:25;;;;;;;84.17;34.90;;;9.40;94.20;;;;;;786699;178;26522;-78
2024/02/01 00:35:52;;;;;;;34.23;15.90;;;9.40;94.20;;;;;;826298;172;26430;-76
2024/02/01 00:38:19;;;;;;;54.93;27.33;;;9.50;94.30;;;;;;812450;172;26364;-77
2024/02/01 00:40:45;;;;;;;47.87;21.83;;;9.50;94.30;;;;;;819418;173;26508;-76
2024/02/01 00:43:12;;;;;;;21.40;10.17;;;9.50;94.40;;;;;;781889;180;26505;-77
2024/02/01 00:45:38;;;;;;;17.67;8.90;;;9.50;94.40;;;;;;792244;180;26513;-77
2024/02/01 00:48:05;;;;;;;21.40;7.43;;;9.50;94.60;;;;;;785541;182;26498;-76
2024/02/01 00:50:32;;;;;;;24.50;12.30;;;9.50;94.70;;;;;;821502;175;26361;-76
2024/02/01 00:52:58;;;;;;;20.63;9.60;;;9.50;94.70;;;;;;821173;175;26429;-76
2024/02/01 00:55:25;;;;;;;18.97;9.97;;;9.50;94.70;;;;;;822894;170;26406;-76
2024/02/01 00:57:51;;;;;;;16.27;9.23;;;9.50;94.80;;;;;;826529;173;26893;-76
2024/02/01 01:00:18;;;;;;;14.80;7.83;;;9.50;94.80;;;;;;801022;176;26447;-77
2024/02/01 01:02:45;;;;;;;15.77;9.33;;;9.50;94.70;;;;;;812412;173;26477;-77
2024/02/01 01:05:11;;;;;;;17.13;9.07;;;9.60;94.70;;;;;;808149;173;26444;-78
2024/02/01 01:07:38;;;;;;;15.33;8.63;;;9.60;94.60;;;;;;817592;170;26460;-77
2024/02/01 01:10:05;;;;;;;17.53;9.50;;;9.50;94.80;;;;;;807781;173;26431;-77
2024/02/01 01:12:32;;;;;;;22.60;9.90;;;9.60;94.80;;;;;;807466;174;26432;-76
2024/02/01 01:14:58;;;;;;;19.00;10.77;;;9.60;94.80;;;;;;807483;177;26433;-76
2024/02/01 01:17:25;;;;;;;16.13;8.70;;;9.60;94.90;;;;;;807388;173;26423;-78
2024/02/01 01:19:54;;;;;;;15.87;10.03;;;9.50;95.10;;;;;;815407;173;26938;-77
2024/02/01 01:22:19;;;;;;;17.30;10.33;;;9.50;95.10;;;;;;829730;173;26423;-76
2024/02/01 01:24:46;;;;;;;20.63;11.83;;;9.50;95.20;;;;;;801518;176;26443;-76
2024/02/01 01:27:12;;;;;;;22.13;10.57;;;9.50;95.70;;;;;;821028;175;26368;-76
2024/02/01 01:29:39;;;;;;;13.73;9.07;;;9.50;96.00;;;;;;820851;175;26344;-76
2024/02/01 01:32:06;;;;;;;24.20;12.43;;;9.40;96.30;;;;;;816352;173;26432;-77
2024/02/01 01:34:32;;;;;;;20.23;11.40;;;9.40;97.00;;;;;;792710;180;26527;-75
2024/02/01 01:36:59;;;;;;;23.03;12.40;;;9.30;97.50;;;;;;791006;181;26529;-77
2024/02/01 01:39:25;;;;;;;21.37;12.27;;;9.20;98.30;;;;;;800528;179;26437;-76
2024/02/01 01:41:52;;;;;;;21.00;12.03;;;9.00;99.10;;;;;;813923;173;26398;-76
2024/02/01 01:44:19;;;;;;;21.37;12.83;;;9.00;99.50;;;;;;801903;176;26544;-75
2024/02/01 01:46:45;;;;;;;23.80;12.87;;;8.90;99.90;;;;;;817495;172;26423;-76
2024/02/01 01:49:12;;;;;;;29.47;15.30;;;8.90;99.90;;;;;;827407;172;26358;-74
2024/02/01 01:51:38;;;;;;;29.30;14.77;;;8.80;99.90;;;;;;820900;173;26395;-77
2024/02/01 01:54:06;;;;;;;23.17;14.53;;;8.80;99.90;;;;;;802809;176;26504;-77
2024/02/01 01:56:35;;;;;;;28.27;15.50;;;8.70;99.90;;;;;;803107;178;26510;-76
2024/02/01 01:58:59;;;;;;;30.33;15.57;;;8.60;99.90;;;;;;820605;173;26366;-76
2024/02/01 02:01:25;;;;;;;23.30;15.70;;;8.70;99.90;;;;;;813486;176;26990;-75
2024/02/01 02:03:52;;;;;;;31.57;15.03;;;8.60;99.90;;;;;;827616;172;26515;-76
2024/02/01 02:06:19;;;;;;;23.73;14.57;;;8.60;99.90;;;;;;827790;173;26914;-77
2024/02/01 02:08:45;;;;;;;32.33;17.73;;;8.50;99.90;;;;;;800110;176;26463;-77
2024/02/01 02:11:12;;;;;;;37.83;19.33;;;8.60;99.90;;;;;;812409;173;27068;-77
2024/02/01 02:13:38;;;;;;;32.63;17.40;;;8.50;99.90;;;;;;820062;173;26366;-77
2024/02/01 02:16:05;;;;;;;23.30;14.73;;;8.50;99.90;;;;;;818692;173;26430;-76
2024/02/01 02:18:32;;;;;;;35.33;16.63;;;8.50;99.90;;;;;;809518;177;26967;-76
2024/02/01 02:20:58;;;;;;;28.47;15.57;;;8.50;99.90;;;;;;810282;173;26440;-76
2024/02/01 02:23:25;;;;;;;28.47;17.17;;;8.50;99.90;;;;;;828475;173;26337;-78
2024/02/01 02:25:52;;;;;;;34.40;18.00;;;8.50;99.90;;;;;;823194;173;26335;-78
2024/02/01 02:28:18;;;;;;;33.43;16.93;;;8.50;99.90;;;;;;813680;173;26359;-76
2024/02/01 02:30:45;;;;;;;37.50;18.73;;;8.50;99.90;;;;;;808983;178;26400;-77
2024/02/01 02:33:11;;;;;;;25.57;15.93;;;8.50;99.90;;;;;;810117;173;26467;-76
2024/02/01 02:35:38;;;;;;;28.93;17.43;;;8.50;99.90;;;;;;824274;173;26445;-76
2024/02/01 02:38:05;;;;;;;30.63;17.13;;;8.50;99.90;;;;;;813769;176;26435;-76
2024/02/01 02:40:31;;;;;;;32.57;17.87;;;8.50;99.90;;;;;;813753;176;27099;-77
2024/02/01 02:42:58;;;;;;;38.93;19.83;;;8.50;99.90;;;;;;813765;176;26478;-77
2024/02/01 02:45:24;;;;;;;34.67;17.87;;;8.50;99.90;;;;;;803453;176;26986;-76
2024/02/01 02:47:51;;;;;;;28.80;16.50;;;8.40;99.90;;;;;;814488;172;26421;-77
2024/02/01 02:50:18;;;;;;;29.27;17.50;;;8.50;99.90;;;;;;804828;176;26464;-77
2024/02/01 02:52:44;;;;;;;29.10;17.57;;;8.50;99.90;;;;;;796810;178;26474;-78
2024/02/01 02:55:11;;;;;;;35.93;19.07;;;8.50;99.90;;;;;;811832;173;26484;-77
2024/02/01 02:57:37;;;;;;;33.23;19.17;;;8.50;99.90;;;;;;809731;173;26977;-77
2024/02/01 03:00:05;;;;;;;32.30;19.40;;;8.50;99.90;;;;;;819475;172;26358;-76
2024/02/01 03:02:31;;;;;;;36.03;19.17;;;8.50;99.90;;;;;;785168;177;26422;-78
2024/02/01 03:04:59;;;;;;;31.93;16.93;;;8.50;99.90;;;;;;805742;177;26513;-78
2024/02/01 03:07:25;;;;;;;30.43;17.97;;;8.50;99.90;;;;;;821451;173;27010;-78
2024/02/01 03:09:52;;;;;;;34.90;18.33;;;8.50;99.90;;;;;;788495;180;26462;-79
2024/02/01 03:12:19;;;;;;;38.97;20.87;;;8.50;99.90;;;;;;823805;173;26873;-78
2024/02/01 03:14:48;;;;;;;36.27;19.17;;;8.50;99.90;;;;;;827078;169;26357;-78
2024/02/01 03:17:12;;;;;;;28.50;15.80;;;8.50;99.90;;;;;;809804;173;26431;-79
2024/02/01 03:19:39;;;;;;;24.97;15.03;;;8.50;99.90;;;;;;795716;178;26450;-79
2024/02/01 03:22:05;;;;;;;27.47;17.07;;;8.50;99.90;;;;;;827708;172;26331;-79
2024/02/01 03:24:31;;;;;;;31.77;17.77;;;8.50;99.90;;;;;;805411;176;26423;-77
2024/02/01 03:26:59;;;;;;;34.80;18.97;;;8.50;99.90;;;;;;802159;179;27076;-80
2024/02/01 03:29:26;;;;;;;38.33;18.23;;;8.50;99.90;;;;;;805662;178;26422;-79
2024/02/01 03:31:52;;;;;;;27.60;18.07;;;8.50;99.90;;;;;;819896;173;26374;-79
2024/02/01 03:34:21;;;;;;;28.83;15.47;;;8.50;99.90;;;;;;817109;172;26415;-78
2024/02/01 03:36:48;;;;;;;30.97;16.77;;;8.50;99.90;;;;;;793530;179;26490;-76
2024/02/01 03:41:46;;;;;;;33.27;18.33;;;8.50;99.90;;;;;;821715;173;26337;-78
2024/02/01 03:44:13;;;;;;;35.43;18.87;;;8.50;99.90;;;;;;814149;173;26355;-79
2024/02/01 03:46:41;;;;;;;26.50;16.77;;;8.60;99.90;;;;;;807479;176;26470;-80
2024/02/01 03:49:06;;;;;;;31.83;18.37;;;8.50;99.90;;;;;;825988;173;26339;-80
2024/02/01 03:51:35;;;;;;;31.67;18.60;;;8.60;99.90;;;;;;803578;176;26979;-79
2024/02/01 03:54:05;;;;;;;31.63;20.47;;;8.60;99.90;;;;;;795914;178;26443;-78
2024/02/01 03:56:26;;;;;;;28.53;17.63;;;8.60;99.90;;;;;;811199;173;26948;-78
2024/02/01 03:58:52;;;;;;;26.90;16.37;;;8.60;99.90;;;;;;817468;173;26414;-79
2024/02/01 04:01:19;;;;;;;28.33;17.30;;;8.60;99.90;;;;;;820157;173;26377;-76
2024/02/01 04:03:45;;;;;;;25.40;16.53;;;8.60;99.90;;;;;;787971;180;26466;-78
2024/02/01 04:06:12;;;;;;;25.00;17.00;;;8.60;99.90;;;;;;821551;173;26418;-78
2024/02/01 04:08:39;;;;;;;30.20;18.37;;;8.60;99.90;;;;;;784580;179;26501;-79
2024/02/01 04:11:05;;;;;;;25.80;18.30;;;8.60;99.90;;;;;;783271;179;26605;-79
2024/02/01 04:13:32;;;;;;;25.87;17.70;;;8.70;99.90;;;;;;818533;172;26412;-78
2024/02/01 04:15:58;;;;;;;27.57;18.97;;;8.70;99.90;;;;;;816064;173;26367;-80
2024/02/01 04:18:25;;;;;;;30.13;19.37;;;8.70;99.90;;;;;;799649;176;26485;-79
2024/02/01 04:20:52;;;;;;;28.03;19.30;;;8.70;99.90;;;;;;785219;182;26449;-79
2024/02/01 04:23:19;;;;;;;28.57;18.90;;;8.70;99.90;;;;;;784672;180;26507;-79
2024/02/01 04:25:45;;;;;;;35.03;20.50;;;8.70;99.90;;;;;;783492;182;26456;-79
2024/02/01 04:28:14;;;;;;;38.20;21.87;;;8.70;99.90;;;;;;784333;180;26460;-81
2024/02/01 04:30:38;;;;;;;34.07;20.87;;;8.70;99.90;;;;;;783227;178;26518;-81
2024/02/01 04:33:06;;;;;;;35.03;22.53;;;8.70;99.90;;;;;;782742;184;26451;-78
2024/02/01 04:35:32;;;;;;;36.23;23.37;;;8.80;99.90;;;;;;784283;180;28877;-81
2024/02/01 04:37:59;;;;;;;30.63;20.23;;;8.80;99.90;;;;;;787704;180;26482;-79
2024/02/01 04:40:25;;;;;;;30.13;20.00;;;8.80;99.90;;;;;;805984;176;26427;-80
2024/02/01 04:42:51;;;;;;;38.47;23.13;;;8.80;99.90;;;;;;800751;177;26503;-80
2024/02/01 04:45:18;;;;;;;32.03;21.03;;;8.80;99.90;;;;;;804515;178;26462;-79
2024/02/01 04:47:45;;;;;;;36.87;23.00;;;8.80;99.90;;;;;;804140;178;26495;-79
2024/02/01 04:50:11;;;;;;;36.90;23.30;;;8.80;99.90;;;;;;805114;177;26417;-80
2024/02/01 04:52:38;;;;;;;36.30;22.50;;;8.80;99.90;;;;;;801336;178;26504;-79
2024/02/01 04:55:05;;;;;;;33.63;21.70;;;8.80;99.90;;;;;;804299;178;26425;-80
2024/02/01 04:57:31;;;;;;;38.53;23.43;;;8.80;99.90;;;;;;805415;177;26466;-80
2024/02/01 04:59:58;;;;;;;37.23;22.37;;;8.80;99.90;;;;;;803271;178;26411;-77
2024/02/01 05:02:25;;;;;;;35.90;22.90;;;8.80;99.90;;;;;;779869;182;26461;-81
2024/02/01 05:04:51;;;;;;;39.87;24.37;;;8.80;99.90;;;;;;791436;182;26462;-80
2024/02/01 05:07:18;;;;;;;35.20;22.13;;;8.80;99.90;;;;;;776940;182;27124;-79
2024/02/01 05:09:44;;;;;;;37.10;21.40;;;8.80;99.90;;;;;;791450;177;26424;-80
2024/02/01 05:12:12;;;;;;;37.17;22.73;;;8.80;99.90;;;;;;792957;181;26981;-82
2024/02/01 05:14:38;;;;;;;29.67;19.10;;;8.90;99.90;;;;;;776438;184;26475;-80
2024/02/01 05:17:04;;;;;;;32.50;21.03;;;8.90;99.90;;;;;;794367;179;26454;-80
2024/02/01 05:19:31;;;;;;;30.80;20.27;;;8.90;99.90;;;;;;794353;178;26587;-81
2024/02/01 05:21:58;;;;;;;36.83;20.63;;;8.90;99.90;;;;;;795027;177;26422;-81
2024/02/01 05:24:24;;;;;;;33.80;21.03;;;9.00;99.90;;;;;;797505;177;26436;-78
2024/02/01 05:26:51;;;;;;;32.87;20.57;;;8.90;99.90;;;;;;798687;176;26465;-80
2024/02/01 05:29:20;;;;;;;35.13;21.23;;;8.90;99.90;;;;;;788547;180;26452;-80
2024/02/01 05:31:47;;;;;;;38.70;22.43;;;9.00;99.90;;;;;;790383;180;26472;-81
2024/02/01 05:34:15;;;;;;;42.87;24.60;;;8.90;99.90;;;;;;777970;180;26451;-80
2024/02/01 05:36:42;;;;;;;48.40;24.63;;;8.90;99.90;;;;;;786743;181;26468;-81
2024/02/01 05:39:24;;;;;;;42.37;25.67;;;8.90;99.90;;;;;;790481;179;26454;-80
2024/02/01 05:41:34;;;;;;;45.70;24.93;;;8.90;99.90;;;;;;790251;177;27195;-80
2024/02/01 05:44:01;;;;;;;49.80;27.77;;;8.90;99.90;;;;;;797680;177;26436;-81
2024/02/01 05:46:27;;;;;;;54.33;27.87;;;9.00;99.90;;;;;;799517;177;26488;-79
2024/02/01 05:48:54;;;;;;;53.77;28.90;;;9.00;99.90;;;;;;786611;182;26442;-78
2024/02/01 05:51:21;;;;;;;58.47;28.97;;;9.10;99.90;;;;;;795372;179;26553;-81
2024/02/01 05:53:47;;;;;;;54.57;28.83;;;9.00;99.90;;;;;;796393;178;26532;-81
2024/02/01 05:56:14;;;;;;;43.73;26.37;;;9.00;99.90;;;;;;799283;180;26471;-80
2024/02/01 05:58:41;;;;;;;43.30;25.57;;;9.00;99.90;;;;;;791405;180;26439;-81
2024/02/01 06:01:16;;;;;;;48.47;26.30;;;9.00;99.90;;;;;;788811;180;26432;-81
2024/02/01 06:03:34;;;;;;;52.97;26.57;;;9.00;99.90;;;;;;809309;177;26425;-81
2024/02/01 06:06:00;;;;;;;52.77;28.60;;;9.00;99.90;;;;;;796245;177;26446;-80
2024/02/01 06:08:27;;;;;;;53.77;28.60;;;9.00;99.90;;;;;;784785;180;27025;-78
2024/02/01 06:10:53;;;;;;;51.30;28.83;;;9.10;99.90;;;;;;799747;176;26451;-79
2024/02/01 06:13:20;;;;;;;55.07;30.00;;;9.00;99.90;;;;;;802839;178;26960;-79
2024/02/01 06:15:51;;;;;;;59.37;30.23;;;9.10;99.90;;;;;;784672;180;26486;-79
2024/02/01 06:18:13;;;;;;;54.30;29.90;;;9.10;99.90;;;;;;803596;177;27064;-81
2024/02/01 06:20:40;;;;;;;51.67;27.57;;;9.10;99.90;;;;;;808407;177;26422;-82
2024/02/01 06:23:06;;;;;;;65.30;31.57;;;9.00;99.90;;;;;;805300;177;26432;-80
2024/02/01 06:25:33;;;;;;;50.23;26.33;;;9.10;99.90;;;;;;798858;176;26551;-79
2024/02/01 06:27:59;;;;;;;57.73;29.47;;;9.10;99.90;;;;;;803224;178;26524;-79
2024/02/01 06:30:26;;;;;;;56.83;28.67;;;9.10;99.90;;;;;;794495;179;27055;-80
2024/02/01 06:32:53;;;;;;;54.87;29.50;;;9.10;99.90;;;;;;794355;180;26447;-80
2024/02/01 06:35:22;;;;;;;61.23;30.17;;;9.10;99.90;;;;;;796897;179;27008;-78
2024/02/01 06:37:52;;;;;;;57.10;29.17;;;9.10;99.90;;;;;;795698;179;26476;-78
2024/02/01 06:40:37;;;;;;;55.47;28.23;;;9.10;99.90;;;;;;795742;180;26444;-80
2024/02/01 06:43:08;;;;;;;53.90;27.83;;;9.10;99.90;;;;;;791749;178;26430;-81
2024/02/01 06:45:28;;;;;;;58.37;28.67;;;9.10;99.90;;;;;;784132;181;26464;-80
2024/02/01 06:48:00;;;;;;;53.13;26.00;;;9.20;99.90;;;;;;800903;178;27654;-80
2024/02/01 06:50:45;;;;;;;54.47;29.07;;;9.20;99.90;;;;;;791672;181;26482;-79
2024/02/01 06:52:46;;;;;;;56.37;28.57;;;9.10;99.90;;;;;;777081;182;26458;-79
2024/02/01 06:55:36;;;;;;;55.10;28.30;;;9.10;99.90;;;;;;791900;178;27063;-81
2024/02/01 06:58:03;;;;;;;54.13;29.43;;;9.20;99.90;;;;;;793238;179;26454;-80
2024/02/01 07:03:01;;;;;;;59.40;28.70;;;9.10;99.90;;;;;;789378;180;26428;-80
2024/02/01 07:05:25;;;;;;;64.20;28.73;;;9.10;99.90;;;;;;775575;185;26460;-81
2024/02/01 07:07:50;;;;;;;54.93;25.87;;;9.10;99.90;;;;;;781074;183;26475;-80
2024/02/01 07:10:16;;;;;;;56.70;27.93;;;9.10;99.90;;;;;;779611;180;26465;-82
2024/02/01 07:12:42;;;;;;;60.10;29.57;;;9.10;99.90;;;;;;776494;182;26990;-81
2024/02/01 07:15:29;;;;;;;58.23;30.87;;;8.90;99.90;;;;;;792256;178;26457;-81
2024/02/01 07:17:58;;;;;;;55.53;26.73;;;8.80;99.90;;;;;;792948;178;26463;-79
2024/02/01 07:20:23;;;;;;;55.47;28.10;;;8.80;99.90;;;;;;797368;178;26448;-79
2024/02/01 07:58:19;;;;;;;38.40;17.60;;;8.30;99.90;;;;;;786291;180;27046;-79
2024/02/01 08:00:46;;;;;;;30.77;15.90;;;8.20;99.90;;;;;;802412;177;26450;-77
2024/02/01 08:08:20;;;;;;;31.43;13.17;;;8.20;99.90;;;;;;800316;177;26426;-79
2024/02/01 08:10:46;;;;;;;32.37;10.77;;;8.10;99.90;;;;;;801235;177;26449;-79
2024/02/01 08:13:13;;;;;;;26.00;8.43;;;8.10;99.90;;;;;;798873;177;26462;-78
2024/02/01 08:15:42;;;;;;;24.77;9.57;;;8.00;99.90;;;;;;802766;177;26446;-79
2024/02/01 08:18:08;;;;;;;21.83;7.40;;;7.90;99.90;;;;;;804547;177;26474;-79
2024/02/01 08:20:34;;;;;;;24.60;6.37;;;7.80;99.90;;;;;;787874;179;26456;-78
2024/02/01 08:23:00;;;;;;;24.67;6.67;;;7.70;99.90;;;;;;786455;180;26475;-79
2024/02/01 08:25:26;;;;;;;23.03;5.73;;;7.60;99.90;;;;;;790998;180;26428;-79
2024/02/01 08:27:54;;;;;;;23.67;6.20;;;7.40;99.90;;;;;;782399;181;26486;-79
2024/02/01 08:30:20;;;;;;;33.70;6.77;;;7.30;99.80;;;;;;796316;176;26420;-80
2024/02/01 08:32:48;;;;;;;18.53;5.63;;;7.30;99.90;;;;;;804601;177;26434;-80
2024/02/01 08:35:14;;;;;;;19.70;6.20;;;7.30;99.90;;;;;;795765;177;26445;-79
2024/02/01 08:37:41;;;;;;;23.37;6.03;;;7.20;99.90;;;;;;806003;173;26507;-79
2024/02/01 08:42:40;;;;;;;25.17;7.37;;;7.20;99.90;;;;;;788994;180;26445;-78
2024/02/01 08:45:07;;;;;;;27.27;6.90;;;7.20;99.90;;;;;;794991;180;27005;-79
2024/02/01 08:47:36;;;;;;;29.83;6.40;;;7.20;99.90;;;;;;783221;180;26504;-77
2024/02/01 08:50:06;;;;;;;25.53;6.53;;;7.20;99.90;;;;;;779686;181;26465;-79
2024/02/01 08:52:27;;;;;;;25.50;5.77;;;7.20;98.70;;;;;;797184;177;26440;-79
2024/02/01 08:54:53;;;;;;;31.43;5.17;;;7.20;98.40;;;;;;795419;177;27034;-79
2024/02/01 08:57:21;;;;;;;32.77;5.40;;;7.20;98.90;;;;;;800824;176;26603;-80
2024/02/01 08:59:47;;;;;;;32.97;6.70;;;7.20;99.00;;;;;;798554;177;26588;-77
2024/02/01 09:02:15;;;;;;;32.63;4.97;;;7.20;99.40;;;;;;800432;177;26452;-78
2024/02/01 09:04:41;;;;;;;35.70;6.27;;;7.20;97.30;;;;;;797153;177;26452;-81
2024/02/01 09:07:06;;;;;;;32.63;5.67;;;7.20;98.70;;;;;;801951;178;26471;-79
2024/02/01 09:09:34;;;;;;;31.73;4.93;;;7.20;98.60;;;;;;804413;178;26587;-79
2024/02/01 09:12:00;;;;;;;26.30;4.73;;;7.30;97.30;;;;;;802857;176;26429;-79
2024/02/01 09:14:28;;;;;;;29.77;4.60;;;7.30;96.80;;;;;;785068;180;26448;-80
2024/02/01 09:16:53;;;;;;;39.50;5.60;;;7.40;97.50;;;;;;784810;181;26479;-79
2024/02/01 09:19:20;;;;;;;34.40;5.40;;;7.40;97.00;;;;;;785407;178;26480;-79
2024/02/01 09:21:47;;;;;;;32.87;6.97;;;7.50;97.20;;;;;;783772;182;26448;-79
2024/02/01 09:24:13;;;;;;;33.40;4.20;;;7.40;97.30;;;;;;785121;180;26456;-79
2024/02/01 09:26:41;;;;;;;26.90;4.73;;;7.50;97.30;;;;;;807542;177;26446;-79
2024/02/01 09:29:11;;;;;;;28.87;4.73;;;7.50;96.70;;;;;;813267;176;26452;-80
2024/02/01 09:31:33;;;;;;;35.73;5.10;;;7.60;95.80;;;;;;804948;177;26414;-81
2024/02/01 09:34:00;;;;;;;24.60;4.53;;;7.70;95.70;;;;;;804805;177;26447;-79
2024/02/01 09:36:27;;;;;;;29.60;7.30;;;7.70;95.10;;;;;;803840;177;26463;-80
2024/02/01 09:38:54;;;;;;;32.03;5.23;;;7.80;96.00;;;;;;809693;177;26453;-79
2024/02/01 09:41:20;;;;;;;29.00;5.37;;;7.80;96.60;;;;;;805544;177;26471;-79
2024/02/01 09:43:48;;;;;;;32.50;5.70;;;7.80;95.60;;;;;;802522;177;26461;-75
2024/02/01 09:46:16;;;;;;;35.03;4.80;;;7.80;96.00;;;;;;776653;184;26537;-79
2024/02/01 09:48:41;;;;;;;37.50;7.07;;;7.90;94.60;;;;;;790627;176;26435;-80
2024/02/01 09:51:17;;;;;;;33.43;6.33;;;7.90;95.00;;;;;;790161;182;26465;-79
2024/02/01 09:53:36;;;;;;;35.43;5.40;;;7.90;94.90;;;;;;776173;185;26532;-79
2024/02/01 09:56:04;;;;;;;30.60;4.17;;;8.00;95.50;;;;;;790776;180;26443;-78
2024/02/01 09:58:28;;;;;;;31.57;4.67;;;8.10;94.00;;;;;;792987;180;26504;-77
2024/02/01 10:00:54;;;;;;;36.23;5.07;;;8.10;94.20;;;;;;775715;184;26485;-78
2024/02/01 10:03:23;;;;;;;24.00;4.53;;;8.10;94.50;;;;;;791219;182;26460;-79
2024/02/01 10:05:51;;;;;;;32.93;4.80;;;8.20;93.20;;;;;;793545;180;27003;-78
2024/02/01 10:08:17;;;;;;;39.17;5.43;;;8.10;94.30;;;;;;795464;175;26420;-77
2024/02/01 10:10:45;;;;;;;32.90;6.10;;;8.20;93.80;;;;;;783865;183;27053;-79
2024/02/01 10:13:14;;;;;;;31.17;7.07;;;8.40;94.10;;;;;;783491;183;26473;-78
2024/02/01 10:15:44;;;;;;;38.50;5.07;;;8.40;93.30;;;;;;783255;183;27023;-78
2024/02/01 10:18:16;;;;;;;28.20;4.83;;;8.30;92.20;;;;;;782614;184;26505;-77
2024/02/01 10:20:47;;;;;;;21.83;4.17;;;8.40;93.10;;;;;;782605;183;26478;-78
2024/02/01 10:23:14;;;;;;;27.67;4.93;;;8.50;92.40;;;;;;784526;180;26508;-78
2024/02/01 10:25:41;;;;;;;24.03;5.03;;;8.50;91.50;;;;;;804284;177;26453;-79
2024/02/01 10:28:08;;;;;;;29.17;5.93;;;8.60;92.50;;;;;;799944;177;26444;-79
2024/02/01 10:30:36;;;;;;;30.20;6.40;;;8.60;91.40;;;;;;783392;180;27005;-81
2024/02/01 10:33:01;;;;;;;33.33;6.13;;;8.80;91.50;;;;;;805931;177;26430;-79
2024/02/01 10:35:29;;;;;;;34.60;5.17;;;8.80;91.40;;;;;;801039;177;26741;-78
2024/02/01 10:37:55;;;;;;;43.00;9.23;;;8.60;92.70;;;;;;796499;174;26452;-80
2024/02/01 10:40:21;;;;;;;26.67;5.57;;;8.80;91.70;;;;;;804002;177;26426;-78
2024/02/01 10:42:48;;;;;;;23.73;5.47;;;8.80;90.90;;;;;;805865;177;26430;-80
2024/02/01 10:45:14;;;;;;;36.60;6.23;;;8.70;91.00;;;;;;796254;178;26459;-79
2024/02/01 10:47:43;;;;;;;26.90;5.00;;;8.80;91.50;;;;;;797086;178;26447;-79
2024/02/01 10:50:10;;;;;;;23.97;4.30;;;8.70;91.20;;;;;;801091;177;26435;-80
2024/02/01 10:52:37;;;;;;;34.60;5.40;;;8.60;91.60;;;;;;783148;184;26468;-80
2024/02/01 10:55:09;;;;;;;18.33;4.60;;;9.00;91.20;;;;;;784252;180;26488;-79
2024/02/01 10:57:34;;;;;;;25.27;5.13;;;9.00;89.90;;;;;;800238;177;26493;-79
2024/02/01 10:59:58;;;;;;;37.23;6.70;;;8.80;90.90;;;;;;798814;177;26474;-77
2024/02/01 11:02:27;;;;;;;37.67;6.87;;;8.70;90.70;;;;;;801162;176;28923;-79
2024/02/01 11:04:52;;;;;;;29.30;4.50;;;8.60;91.20;;;;;;784939;180;26625;-78
2024/02/01 11:07:20;;;;;;;26.97;5.33;;;8.50;90.70;;;;;;784886;180;26581;-78
2024/02/01 11:09:45;;;;;;;32.57;5.17;;;8.40;90.80;;;;;;784274;180;27013;-80
2024/02/01 11:12:14;;;;;;;24.63;5.27;;;9.10;90.70;;;;;;784177;180;26559;-78
2024/02/01 11:14:42;;;;;;;33.90;6.10;;;10.00;89.20;;;;;;785303;177;26481;-78
2024/02/01 11:17:09;;;;;;;44.03;13.23;;;10.90;82.40;;;;;;784591;180;26487;-80
2024/02/01 11:19:36;;;;;;;34.33;7.73;;;12.30;76.80;;;;;;783450;178;26979;-76
2024/02/01 11:22:02;;;;;;;25.97;6.70;;;13.20;73.70;;;;;;783150;180;26565;-78
2024/02/01 11:24:28;;;;;;;32.00;5.50;;;13.40;68.50;;;;;;783258;180;26468;-83
2024/02/01 11:27:00;;;;;;;26.03;4.90;;;13.10;70.70;;;;;;783003;180;26744;-79
2024/02/01 11:29:26;;;;;;;29.00;6.30;;;12.50;69.00;;;;;;782919;180;26464;-79
2024/02/01 11:31:54;;;;;;;25.70;5.70;;;11.80;73.10;;;;;;783211;179;28213;-80
2024/02/01 11:34:19;;;;;;;25.30;4.83;;;12.30;70.90;;;;;;783155;180;26496;-80
2024/02/01 11:36:46;;;;;;;31.03;5.83;;;11.10;71.80;;;;;;782948;179;26747;-79
2024/02/01 11:39:13;;;;;;;32.20;5.33;;;10.90;76.00;;;;;;783847;180;26537;-79
2024/02/01 11:41:39;;;;;;;30.60;6.53;;;11.20;76.40;;;;;;785648;181;26464;-80
2024/02/01 11:44:05;;;;;;;51.43;13.07;;;12.30;75.50;;;;;;779102;183;26465;-80
2024/02/01 11:46:32;;;;;;;27.70;5.87;;;12.30;70.20;;;;;;780838;180;26529;-82
2024/02/01 11:48:58;;;;;;;31.67;6.07;;;11.40;70.30;;;;;;781325;181;26485;-79
2024/02/01 11:51:26;;;;;;;28.27;5.07;;;10.60;73.50;;;;;;781282;184;26487;-80
2024/02/01 11:53:52;;;;;;;29.00;5.47;;;10.20;77.40;;;;;;780185;181;26549;-79
2024/02/01 11:56:21;;;;;;;21.63;4.53;;;9.90;79.60;;;;;;779538;181;26498;-78
2024/02/01 11:58:46;;;;;;;13.97;3.73;;;9.60;79.80;;;;;;778872;183;26453;-79
2024/02/01 12:01:12;;;;;;;24.67;5.70;;;9.30;81.20;;;;;;779026;183;26466;-76
2024/02/01 12:03:39;;;;;;;30.63;5.00;;;9.30;82.10;;;;;;778737;183;26512;-79
2024/02/01 12:06:05;;;;;;;34.23;6.20;;;9.30;83.80;;;;;;778456;180;26507;-80
2024/02/01 12:08:32;;;;;;;27.33;6.60;;;9.30;85.40;;;;;;778690;183;26515;-78
2024/02/01 12:10:59;;;;;;;31.33;6.13;;;10.40;78.70;;;;;;778906;179;27019;-80
2024/02/01 12:13:25;;;;;;;24.27;4.73;;;11.60;76.00;;;;;;799608;177;26483;-80
2024/02/01 12:15:52;;;;;;;26.93;5.17;;;12.00;71.70;;;;;;804035;179;26585;-79
2024/02/01 12:18:18;;;;;;;34.13;7.23;;;10.80;71.00;;;;;;804190;178;26426;-79
2024/02/01 12:20:45;;;;;;;25.47;6.27;;;10.90;74.00;;;;;;804368;179;26427;-80
2024/02/01 12:23:13;;;;;;;46.73;10.83;;;11.00;69.30;;;;;;804269;177;27000;-79
2024/02/01 12:25:39;;;;;;;40.57;10.23;;;10.90;72.70;;;;;;789454;182;26980;-78
2024/02/01 12:28:09;;;;;;;23.87;5.20;;;11.50;71.50;;;;;;794302;179;26436;-78
2024/02/01 12:30:36;;;;;;;17.90;5.03;;;12.80;69.30;;;;;;806516;176;27645;-79
2024/02/01 12:33:01;;;;;;;19.20;4.43;;;13.90;62.30;;;;;;792814;180;26984;-77
2024/02/01 12:35:27;;;;;;;22.00;5.10;;;13.90;57.20;;;;;;806845;177;26437;-80
2024/02/01 12:37:55;;;;;;;25.37;5.27;;;14.70;59.30;;;;;;806741;176;26466;-80
2024/02/01 12:40:20;;;;;;;23.67;6.17;;;15.50;59.10;;;;;;791989;180;26531;-80
2024/02/01 12:42:48;;;;;;;27.07;5.67;;;16.20;56.20;;;;;;806524;177;26434;-83
2024/02/01 12:45:18;;;;;;;24.10;6.30;;;16.70;52.80;;;;;;794517;178;26431;-76
2024/02/01 12:47:47;;;;;;;20.20;5.40;;;16.30;51.10;;;;;;800587;178;26995;-83
2024/02/01 12:50:10;;;;;;;26.97;5.67;;;16.30;50.60;;;;;;788802;178;26454;-80
2024/02/01 12:52:37;;;;;;;18.27;5.13;;;16.40;54.50;;;;;;792841;181;26497;-80
2024/02/01 12:55:04;;;;;;;23.33;6.83;;;16.90;53.80;;;;;;782213;184;26447;-79
2024/02/01 12:57:30;;;;;;;32.70;8.13;;;17.50;49.00;;;;;;794686;176;26567;-78
2024/02/01 12:59:58;;;;;;;25.97;6.70;;;17.70;50.10;;;;;;780453;180;26452;-79
2024/02/01 13:02:23;;;;;;;33.73;10.77;;;17.00;49.20;;;;;;790691;180;26443;-79
2024/02/01 13:04:51;;;;;;;44.27;14.33;;;15.40;53.30;;;;;;804334;177;26477;-79
2024/02/01 13:07:17;;;;;;;26.80;7.40;;;14.50;56.20;;;;;;807456;177;26460;-76
2024/02/01 13:09:43;;;;;;;22.60;7.70;;;13.10;59.80;;;;;;805601;174;26451;-79
2024/02/01 13:14:42;;;;;;;32.13;6.60;;;12.00;66.80;;;;;;799938;177;26424;-77
2024/02/01 13:17:11;;;;;;;32.00;4.77;;;12.00;69.80;;;;;;797261;179;26440;-81
2024/02/01 13:19:35;;;;;;;28.07;5.60;;;12.60;66.70;;;;;;795464;179;26463;-79
2024/02/01 13:22:05;;;;;;;23.60;4.60;;;12.10;64.90;;;;;;779190;181;26727;-78
2024/02/01 13:24:28;;;;;;;27.57;7.00;;;11.70;69.00;;;;;;789012;181;26436;-80
2024/02/01 13:26:55;;;;;;;30.70;6.67;;;12.20;69.10;;;;;;805408;177;26494;-80
2024/02/01 13:29:23;;;;;;;26.20;4.47;;;11.80;67.80;;;;;;778607;181;26997;-80